Time;durP1;ratioP1;P1;durP2;ratioP2;P2;SDS_P1;SDS_P2;PMS_P1;PMS_P2;Temp;Humidity;BMP_temperature;BMP_pressure;BME280_temperature;BME280_humidity;BME280_pressure;Samples;Min_cycle;Max_cycle;Signal;HPM_P1;HPM_P2
2022/10/10 00:01:34;;;;;;;64.38;27.25;;;;;;;11.46;100.00;93074.44;5018079;28;20117;-79
2022/10/10 00:04:00;;;;;;;63.10;28.70;;;;;;;11.48;100.00;93076.75;4999123;28;20048;-78
2022/10/10 00:06:27;;;;;;;72.75;27.05;;;;;;;11.49;100.00;93065.22;5018660;28;20037;-78
2022/10/10 00:08:52;;;;;;;62.15;26.25;;;;;;;11.48;100.00;93071.50;5014949;28;20033;-78
2022/10/10 00:11:21;;;;;;;69.07;27.38;;;;;;;11.47;100.00;93070.75;4995792;28;20033;-79
2022/10/10 00:13:47;;;;;;;51.97;24.38;;;;;;;11.53;100.00;93079.31;5019301;28;20547;-79
2022/10/10 00:16:14;;;;;;;64.07;26.08;;;;;;;11.50;100.00;93069.41;5036308;28;20064;-79
2022/10/10 00:18:40;;;;;;;58.22;26.35;;;;;;;11.49;100.00;93076.50;5035136;28;20081;-79
2022/10/10 00:21:06;;;;;;;56.58;27.05;;;;;;;11.46;100.00;93077.81;5015610;28;20049;-79
2022/10/10 00:23:32;;;;;;;71.22;27.83;;;;;;;11.45;100.00;93072.84;5037035;28;20030;-78
2022/10/10 00:25:58;;;;;;;54.28;26.27;;;;;;;11.43;100.00;93069.72;5001383;28;20038;-79
2022/10/10 00:28:25;;;;;;;64.82;26.30;;;;;;;11.41;100.00;93080.47;5012957;28;20056;-79
2022/10/10 00:30:51;;;;;;;60.55;26.70;;;;;;;11.39;100.00;93073.94;5001919;28;20037;-78
2022/10/10 00:33:17;;;;;;;58.67;25.90;;;;;;;11.35;100.00;93078.16;5034679;28;20065;-79
2022/10/10 00:35:42;;;;;;;61.88;25.95;;;;;;;11.33;100.00;93065.38;5036558;28;20077;-79
2022/10/10 00:38:09;;;;;;;62.97;26.17;;;;;;;11.30;100.00;93070.38;5020578;28;20036;-79
2022/10/10 00:40:35;;;;;;;56.00;26.05;;;;;;;11.28;100.00;93070.66;5044092;28;20413;-79
2022/10/10 00:43:01;;;;;;;54.83;26.20;;;;;;;11.24;100.00;93069.63;5024034;28;20037;-79
2022/10/10 00:45:32;;;;;;;61.15;25.90;;;;;;;11.21;100.00;93070.97;4998222;28;20053;-79
2022/10/10 00:48:00;;;;;;;62.83;27.20;;;;;;;11.17;100.00;93067.34;5010234;28;20041;-79
2022/10/10 00:50:27;;;;;;;60.63;26.10;;;;;;;11.16;100.00;93072.84;5031221;28;20083;-78
2022/10/10 00:52:53;;;;;;;54.58;26.73;;;;;;;11.12;100.00;93066.59;4999712;28;20030;-79
2022/10/10 00:55:20;;;;;;;71.13;26.42;;;;;;;11.10;100.00;93063.44;5007589;28;20037;-79
2022/10/10 00:57:46;;;;;;;56.38;25.67;;;;;;;11.07;100.00;93064.78;5015374;28;20044;-79
2022/10/10 01:00:12;;;;;;;56.80;27.55;;;;;;;11.02;100.00;93060.38;5018397;28;20133;-78
2022/10/10 01:02:38;;;;;;;60.53;26.08;;;;;;;10.97;100.00;93051.78;5034363;28;20041;-79
2022/10/10 01:05:04;;;;;;;61.80;27.10;;;;;;;10.89;100.00;93047.13;5033988;28;20087;-79
2022/10/10 01:07:30;;;;;;;58.15;26.02;;;;;;;10.89;100.00;93050.53;5012947;28;20080;-79
2022/10/10 01:10:01;;;;;;;69.10;25.77;;;;;;;10.82;100.00;93048.22;4998209;28;20107;-79
2022/10/10 01:12:39;;;;;;;55.70;27.00;;;;;;;10.80;100.00;93052.16;5015944;28;20034;-78
2022/10/10 01:15:36;;;;;;;61.65;25.92;;;;;;;10.81;100.00;93046.66;5011270;28;20049;-78
2022/10/10 01:18:20;;;;;;;57.35;25.38;;;;;;;10.74;100.00;93045.38;5039224;28;20507;-79
2022/10/10 01:21:13;;;;;;;60.92;23.92;;;;;;;10.70;100.00;93047.00;5035275;28;20036;-79
2022/10/10 01:24:03;;;;;;;59.75;24.27;;;;;;;10.67;100.00;93050.94;5033352;28;20376;-79
2022/10/10 01:26:31;;;;;;;55.00;24.45;;;;;;;10.64;100.00;93043.63;5033359;28;20021;-79
2022/10/10 01:29:36;;;;;;;58.45;23.45;;;;;;;10.60;100.00;93038.19;5032130;28;20040;-78
2022/10/10 01:32:28;;;;;;;50.63;22.88;;;;;;;10.58;100.00;93035.03;5021927;28;20049;-78
2022/10/10 01:34:58;;;;;;;51.25;22.40;;;;;;;10.60;100.00;93037.38;5016515;28;20044;-79
2022/10/10 01:37:38;;;;;;;54.65;21.90;;;;;;;10.56;100.00;93026.69;5033521;28;20044;-79
2022/10/10 01:40:14;;;;;;;58.38;23.38;;;;;;;10.53;100.00;93029.81;5012905;28;20048;-79
2022/10/10 01:42:50;;;;;;;47.08;21.23;;;;;;;10.52;100.00;93025.66;5033344;28;20037;-79
2022/10/10 01:45:15;;;;;;;75.35;23.02;;;;;;;10.50;100.00;93027.75;5017086;28;20513;-79
2022/10/10 01:47:42;;;;;;;49.70;21.08;;;;;;;10.48;100.00;93026.47;5015908;28;20021;-78
2022/10/10 01:50:13;;;;;;;44.45;20.63;;;;;;;10.47;100.00;93027.50;5009098;28;20037;-78
2022/10/10 01:53:24;;;;;;;55.35;20.73;;;;;;;10.43;100.00;93022.03;4999386;28;20083;-79
2022/10/10 01:55:53;;;;;;;51.97;20.83;;;;;;;10.39;100.00;93021.03;5011478;28;20050;-79
2022/10/10 01:58:57;;;;;;;58.33;20.55;;;;;;;10.36;100.00;93016.34;5023089;28;20629;-79
2022/10/10 02:01:52;;;;;;;47.38;21.73;;;;;;;10.31;100.00;93008.50;5022755;28;20128;-78
2022/10/10 02:04:56;;;;;;;45.53;20.98;;;;;;;10.29;100.00;93010.59;5025652;28;20087;-79
2022/10/10 02:07:35;;;;;;;42.60;19.38;;;;;;;10.26;100.00;93008.50;4991318;28;20049;-78
2022/10/10 02:10:03;;;;;;;50.42;21.13;;;;;;;10.26;100.00;93005.88;5027228;28;20033;-79
2022/10/10 02:12:30;;;;;;;43.45;20.42;;;;;;;10.25;100.00;93004.34;5031200;28;20030;-78
2022/10/10 02:15:01;;;;;;;41.05;19.70;;;;;;;10.26;100.00;93005.88;5002332;28;20403;-79
2022/10/10 02:17:27;;;;;;;41.05;19.70;;;;;;;10.25;100.00;93004.34;5032599;28;20057;-79
2022/10/10 02:19:57;;;;;;;49.83;19.63;;;;;;;10.23;100.00;92998.59;5004490;28;20053;-77
2022/10/10 02:22:24;;;;;;;38.70;20.25;;;;;;;10.22;100.00;93003.03;5026913;28;20040;-78
2022/10/10 02:24:51;;;;;;;40.95;19.10;;;;;;;10.21;100.00;93004.88;5034187;28;20052;-79
2022/10/10 02:27:27;;;;;;;46.08;18.80;;;;;;;10.17;100.00;92998.59;5016378;28;20033;-79
2022/10/10 02:29:57;;;;;;;47.58;18.45;;;;;;;10.17;100.00;92993.38;5009443;28;20542;-78
2022/10/10 02:32:57;;;;;;;42.33;18.50;;;;;;;10.17;100.00;92995.22;5015421;28;20077;-79
2022/10/10 02:35:28;;;;;;;40.13;17.83;;;;;;;10.15;100.00;92989.47;5019996;28;20223;-79
2022/10/10 02:37:54;;;;;;;38.95;18.42;;;;;;;10.14;100.00;92990.53;5031931;28;20391;-78
2022/10/10 02:40:24;;;;;;;40.17;18.67;;;;;;;10.13;100.00;92984.53;4997484;28;20029;-79
2022/10/10 02:42:51;;;;;;;41.47;18.73;;;;;;;10.14;100.00;92982.69;5016124;28;20033;-79
2022/10/10 02:45:19;;;;;;;37.53;17.63;;;;;;;10.12;100.00;92985.56;5004158;28;20051;-78
2022/10/10 02:47:45;;;;;;;35.28;17.77;;;;;;;10.10;100.00;92990.28;5015265;28;20032;-79
2022/10/10 02:50:10;;;;;;;49.15;18.15;;;;;;;10.10;100.00;92987.66;4997446;28;20042;-78
2022/10/10 02:52:36;;;;;;;44.25;18.13;;;;;;;10.08;100.00;92984.53;5028413;28;20038;-79
2022/10/10 02:55:02;;;;;;;40.40;17.98;;;;;;;10.08;100.00;92984.53;5033495;28;20025;-79
2022/10/10 02:57:28;;;;;;;32.45;17.95;;;;;;;10.06;100.00;92986.63;5032923;28;20103;-79
2022/10/10 02:59:53;;;;;;;41.35;17.45;;;;;;;10.09;100.00;92986.09;4998903;28;20380;-78
2022/10/10 03:02:19;;;;;;;39.33;17.75;;;;;;;10.09;100.00;92980.88;5012879;28;20526;-79
2022/10/10 03:04:45;;;;;;;39.25;17.67;;;;;;;10.10;100.00;92987.66;4997914;28;20443;-79
2022/10/10 03:07:10;;;;;;;43.28;17.40;;;;;;;10.10;100.00;92982.44;5033890;28;20025;-79
2022/10/10 03:09:36;;;;;;;47.53;17.73;;;;;;;10.11;100.00;92983.19;5033397;28;20040;-79
2022/10/10 03:12:02;;;;;;;41.08;17.25;;;;;;;10.11;100.00;92980.59;4996476;28;20069;-77
2022/10/10 03:14:28;;;;;;;40.75;18.67;;;;;;;10.11;100.00;92977.97;4999003;28;20041;-79
2022/10/10 03:16:53;;;;;;;31.75;17.35;;;;;;;10.12;100.00;92977.72;5012041;28;20068;-79
2022/10/10 03:19:19;;;;;;;39.97;17.33;;;;;;;10.15;100.00;92979.78;5038330;28;20041;-79
2022/10/10 03:21:44;;;;;;;40.38;17.27;;;;;;;10.16;100.00;92978.75;5013257;28;20034;-79
2022/10/10 03:24:10;;;;;;;35.85;18.75;;;;;;;10.18;100.00;92981.88;5028455;28;20033;-79
2022/10/10 03:26:36;;;;;;;42.88;17.27;;;;;;;10.19;100.00;92986.03;5016618;28;20034;-78
2022/10/10 03:29:02;;;;;;;36.38;17.02;;;;;;;10.21;100.00;92981.31;5013628;28;20136;-79
2022/10/10 03:31:28;;;;;;;36.95;16.83;;;;;;;10.23;100.00;92983.66;5010295;28;20037;-78
2022/10/10 03:33:53;;;;;;;51.88;17.38;;;;;;;10.26;100.00;92987.56;5017118;28;20308;-79
2022/10/10 03:36:20;;;;;;;41.78;17.77;;;;;;;10.26;100.00;92979.72;5020059;28;20446;-78
2022/10/10 03:38:45;;;;;;;40.95;17.35;;;;;;;10.30;100.00;92980.78;4984824;28;20026;-78
2022/10/10 03:41:11;;;;;;;35.35;17.35;;;;;;;10.31;100.00;92983.13;4991503;28;20094;-78
2022/10/10 03:43:36;;;;;;;35.15;18.13;;;;;;;10.31;100.00;92982.31;5017120;28;20041;-78
2022/10/10 03:46:02;;;;;;;47.08;17.90;;;;;;;10.31;100.00;92984.94;5033424;28;20102;-79
2022/10/10 03:48:27;;;;;;;34.75;17.33;;;;;;;10.28;100.00;92977.63;5000780;28;20033;-78
2022/10/10 03:50:53;;;;;;;37.55;17.30;;;;;;;10.30;100.00;92986.78;5017692;28;20042;-78
2022/10/10 03:53:18;;;;;;;40.70;17.75;;;;;;;10.30;100.00;92981.56;5028969;28;20029;-77
2022/10/10 03:55:44;;;;;;;45.45;18.13;;;;;;;10.33;100.00;92980.22;5002512;28;20037;-79
2022/10/10 03:58:10;;;;;;;38.20;18.00;;;;;;;10.31;100.00;92970.06;5016707;28;20502;-79
2022/10/10 04:00:36;;;;;;;34.03;17.10;;;;;;;10.33;100.00;92973.16;5019897;28;20424;-79
2022/10/10 04:03:05;;;;;;;39.00;17.63;;;;;;;10.33;100.00;92969.75;5034738;28;20033;-79
2022/10/10 04:05:38;;;;;;;38.33;17.73;;;;;;;10.34;100.00;92971.34;5034898;28;20072;-79
2022/10/10 04:08:05;;;;;;;34.63;17.50;;;;;;;10.34;100.00;92981.81;5017338;28;20095;-79
2022/10/10 04:10:31;;;;;;;35.45;17.00;;;;;;;10.34;100.00;92972.13;5034910;28;20132;-79
2022/10/10 04:12:57;;;;;;;40.58;17.83;;;;;;;10.37;100.00;92968.16;5000519;28;20025;-77
2022/10/10 04:15:24;;;;;;;39.55;16.80;;;;;;;10.38;100.00;92973.13;5017264;28;20041;-79
2022/10/10 04:17:50;;;;;;;34.75;17.33;;;;;;;10.37;100.00;92968.16;5036679;28;20040;-79
2022/10/10 04:20:16;;;;;;;33.10;17.65;;;;;;;10.39;100.00;92974.69;5019587;28;20049;-79
2022/10/10 04:22:43;;;;;;;41.92;17.50;;;;;;;10.41;100.00;92974.44;4990911;28;20518;-79
2022/10/10 04:25:09;;;;;;;40.30;16.70;;;;;;;10.41;100.00;92977.03;4986877;28;20033;-78
2022/10/10 04:27:35;;;;;;;36.28;16.70;;;;;;;10.43;100.00;92968.94;5034024;28;20098;-78
2022/10/10 04:30:01;;;;;;;33.55;16.92;;;;;;;10.45;100.00;92972.84;5019712;28;20137;-79
2022/10/10 04:32:27;;;;;;;38.25;16.10;;;;;;;10.47;100.00;92975.16;5017888;28;20025;-79
2022/10/10 04:34:52;;;;;;;42.00;17.38;;;;;;;10.47;100.00;92962.88;4995488;28;20106;-79
2022/10/10 04:37:18;;;;;;;38.78;15.82;;;;;;;10.50;100.00;92975.41;5041260;28;20446;-79
2022/10/10 04:39:43;;;;;;;34.13;16.08;;;;;;;10.49;100.00;92973.03;5017747;28;20060;-79
2022/10/10 04:42:09;;;;;;;40.17;17.13;;;;;;;10.50;100.00;92975.41;5000234;28;20049;-79
2022/10/10 04:44:34;;;;;;;30.75;16.58;;;;;;;10.51;100.00;92976.94;5017170;28;20041;-78
2022/10/10 04:47:00;;;;;;;33.00;15.95;;;;;;;10.53;100.00;92977.47;5019414;28;20045;-79
2022/10/10 04:49:26;;;;;;;42.13;16.75;;;;;;;10.54;100.00;92968.56;5035495;28;20383;-78
2022/10/10 04:51:51;;;;;;;38.45;17.02;;;;;;;10.54;100.00;92968.56;5016757;28;20167;-79
2022/10/10 04:54:17;;;;;;;36.85;17.05;;;;;;;10.56;100.00;92969.09;5032095;28;21517;-79
2022/10/10 04:56:42;;;;;;;37.75;16.20;;;;;;;10.58;100.00;92972.22;5035076;28;20398;-79
2022/10/10 04:59:09;;;;;;;35.83;16.85;;;;;;;10.57;100.00;92975.88;5010064;28;20471;-79
2022/10/10 05:01:35;;;;;;;34.83;15.85;;;;;;;10.59;100.00;92978.22;5008742;28;20044;-79
2022/10/10 05:04:00;;;;;;;32.75;16.23;;;;;;;10.60;100.00;92975.34;5001244;28;20040;-78
2022/10/10 05:06:26;;;;;;;36.83;16.67;;;;;;;10.62;100.00;92978.44;5015017;28;20037;-80
2022/10/10 05:08:51;;;;;;;39.25;17.48;;;;;;;10.61;100.00;92974.28;5016537;28;20501;-80
2022/10/10 05:11:17;;;;;;;41.05;17.73;;;;;;;10.63;100.00;92972.16;4984149;28;20029;-80
2022/10/10 05:13:42;;;;;;;39.67;18.25;;;;;;;10.65;100.00;92974.53;4991950;28;20049;-80
2022/10/10 05:16:08;;;;;;;36.55;18.25;;;;;;;10.68;100.00;92975.81;5006698;28;20034;-80
2022/10/10 05:18:36;;;;;;;40.72;19.10;;;;;;;10.71;100.00;92975.25;5026537;28;20083;-81
2022/10/10 05:21:02;;;;;;;38.35;18.30;;;;;;;10.67;100.00;92974.22;5040309;28;20093;-80
2022/10/10 05:23:27;;;;;;;39.95;18.58;;;;;;;10.69;100.00;92977.34;5035507;28;20037;-77
2022/10/10 05:25:53;;;;;;;44.13;18.88;;;;;;;10.68;100.00;92975.81;5001138;28;20036;-78
2022/10/10 05:28:18;;;;;;;44.03;19.30;;;;;;;10.68;100.00;92976.56;5017335;28;20048;-78
2022/10/10 05:30:44;;;;;;;33.45;17.42;;;;;;;10.70;100.00;92984.16;4985412;28;20041;-78
2022/10/10 05:33:10;;;;;;;35.40;18.45;;;;;;;10.69;100.00;92982.59;5018073;28;20056;-79
2022/10/10 05:35:36;;;;;;;34.25;19.02;;;;;;;10.70;100.00;92987.56;5035226;28;20050;-79
2022/10/10 05:38:02;;;;;;;41.60;18.33;;;;;;;10.69;100.00;92987.81;5002635;28;20426;-80
2022/10/10 05:40:27;;;;;;;40.55;18.08;;;;;;;10.69;100.00;92990.44;5019585;28;20029;-79
2022/10/10 05:42:53;;;;;;;42.55;18.83;;;;;;;10.71;100.00;92988.34;5019985;28;20052;-79
2022/10/10 05:45:18;;;;;;;42.47;20.65;;;;;;;10.68;100.00;92976.56;5036870;28;20037;-79
2022/10/10 05:47:44;;;;;;;42.90;19.55;;;;;;;10.71;100.00;92991.72;5003466;28;20033;-79
2022/10/10 05:50:33;;;;;;;44.88;19.60;;;;;;;10.72;100.00;92988.06;5036455;28;20414;-79
2022/10/10 05:52:58;;;;;;;40.70;18.67;;;;;;;10.74;100.00;92993.00;5033130;28;20128;-80
2022/10/10 05:55:24;;;;;;;47.03;19.58;;;;;;;10.73;100.00;92991.47;5037854;28;20124;-80
2022/10/10 05:57:50;;;;;;;47.85;19.05;;;;;;;10.75;100.00;92991.97;5003086;28;20076;-79
2022/10/10 06:00:16;;;;;;;74.25;22.98;;;;;;;10.75;100.00;92992.75;5020159;28;20033;-79
2022/10/10 06:02:41;;;;;;;84.55;25.63;;;;;;;10.77;100.00;92992.47;5020383;28;20107;-80
2022/10/10 06:05:07;;;;;;;109.07;25.80;;;;;;;10.80;100.00;92992.69;5028410;28;20483;-78
2022/10/10 06:07:33;;;;;;;103.35;28.83;;;;;;;10.81;100.00;92988.28;5030859;28;20480;-78
2022/10/10 06:09:59;;;;;;;75.05;22.85;;;;;;;10.84;100.00;92992.94;5013207;28;20056;-78
2022/10/10 06:12:24;;;;;;;51.10;21.70;;;;;;;10.82;100.00;92995.06;5011359;28;20037;-80
2022/10/10 06:14:50;;;;;;;41.53;19.92;;;;;;;10.85;100.00;93002.34;5018672;28;20037;-78
2022/10/10 06:17:16;;;;;;;50.10;23.15;;;;;;;10.86;100.00;93003.94;5012149;28;20573;-77
2022/10/10 06:19:41;;;;;;;45.25;21.08;;;;;;;10.88;100.00;92999.19;5028158;28;20075;-80
2022/10/10 06:22:07;;;;;;;55.20;20.42;;;;;;;10.90;100.00;93004.94;5029887;28;20037;-78
2022/10/10 06:24:33;;;;;;;38.58;19.35;;;;;;;10.92;100.00;93002.03;5012913;28;20068;-79
2022/10/10 06:26:58;;;;;;;46.25;19.02;;;;;;;10.95;100.00;93002.28;5023747;28;20025;-78
2022/10/10 06:29:24;;;;;;;40.85;19.90;;;;;;;10.97;100.00;93004.63;4998155;28;20099;-79
2022/10/10 06:31:50;;;;;;;41.42;18.60;;;;;;;11.01;100.00;93013.47;5037136;28;20033;-79
2022/10/10 06:34:15;;;;;;;41.33;19.63;;;;;;;11.01;100.00;93016.91;5032077;28;20072;-79
2022/10/10 06:36:40;;;;;;;38.03;18.92;;;;;;;11.02;100.00;93012.44;5030291;28;20124;-78
2022/10/10 06:39:06;;;;;;;42.85;19.52;;;;;;;11.06;100.00;93013.47;5014776;28;20124;-79
2022/10/10 06:41:32;;;;;;;43.83;18.17;;;;;;;11.10;100.00;93016.28;5033406;28;20037;-79
2022/10/10 06:43:57;;;;;;;40.05;18.50;;;;;;;11.14;100.00;93012.06;5014289;28;20398;-78
2022/10/10 06:46:23;;;;;;;41.10;17.95;;;;;;;11.19;100.00;93012.00;4995879;28;20104;-78
2022/10/10 06:48:49;;;;;;;38.53;18.30;;;;;;;11.23;100.00;93013.03;5015347;28;20035;-78
2022/10/10 06:51:16;;;;;;;43.67;19.20;;;;;;;11.29;100.00;93019.78;5015209;28;20466;-78
2022/10/10 06:53:42;;;;;;;40.70;19.27;;;;;;;11.35;100.00;93013.44;5036537;28;20033;-77
2022/10/10 06:56:14;;;;;;;35.78;18.23;;;;;;;11.40;100.00;93013.38;4991058;28;20057;-78
2022/10/10 06:58:40;;;;;;;41.17;18.48;;;;;;;11.48;100.00;93021.69;5030779;28;20029;-78
2022/10/10 07:01:05;;;;;;;37.67;19.55;;;;;;;11.56;100.00;93023.72;4991032;28;20498;-77
2022/10/10 07:03:31;;;;;;;47.00;19.75;;;;;;;11.63;100.00;93024.16;5004852;28;20037;-78
2022/10/10 07:05:59;;;;;;;43.63;19.45;;;;;;;11.72;100.00;93024.34;5026013;28;20149;-78
2022/10/10 07:08:26;;;;;;;40.00;17.92;;;;;;;11.78;100.00;93029.25;5009582;28;20038;-77
2022/10/10 07:10:51;;;;;;;35.00;18.10;;;;;;;11.85;100.00;93032.31;5028552;28;20030;-77
2022/10/10 07:13:18;;;;;;;43.65;18.75;;;;;;;11.88;100.00;93039.63;5028770;28;20510;-77
2022/10/10 07:15:44;;;;;;;42.33;19.67;;;;;;;11.91;100.00;93042.78;5033410;28;20064;-78
2022/10/10 07:18:10;;;;;;;42.53;18.00;;;;;;;11.97;100.00;93037.19;5022535;28;20037;-78
2022/10/10 07:20:36;;;;;;;43.83;19.25;;;;;;;11.99;100.00;93042.16;5026218;28;20402;-78
2022/10/10 07:23:03;;;;;;;35.53;18.83;;;;;;;12.08;100.00;93048.34;5035924;28;20498;-77
2022/10/10 07:25:29;;;;;;;39.50;18.02;;;;;;;12.13;100.00;93040.41;5029987;28;20446;-78
2022/10/10 07:27:55;;;;;;;40.67;18.00;;;;;;;12.18;100.00;93052.69;5031462;28;20398;-78
2022/10/10 07:30:23;;;;;;;33.05;17.00;;;;;;;12.21;100.00;93052.91;5013083;28;20117;-77
2022/10/10 07:32:49;;;;;;;45.45;18.08;;;;;;;12.23;100.00;93060.50;5013212;28;20024;-78
2022/10/10 07:35:14;;;;;;;40.30;18.55;;;;;;;12.21;100.00;93063.41;5012106;28;20037;-77
2022/10/10 07:37:40;;;;;;;49.08;19.92;;;;;;;12.19;100.00;93060.28;5026555;28;20037;-77
2022/10/10 07:40:08;;;;;;;47.75;21.23;;;;;;;12.09;100.00;93068.25;5010199;28;20446;-77
2022/10/10 07:42:33;;;;;;;52.85;22.38;;;;;;;11.99;100.00;93060.53;5013893;28;20029;-77
2022/10/10 07:44:59;;;;;;;48.65;21.20;;;;;;;12.02;100.00;93065.19;5029703;28;20048;-76
2022/10/10 07:47:25;;;;;;;43.28;20.35;;;;;;;12.06;100.00;93071.47;5028764;28;20029;-77
2022/10/10 07:49:50;;;;;;;44.90;20.40;;;;;;;12.08;100.00;93074.59;5008291;28;20041;-77
2022/10/10 07:52:16;;;;;;;54.15;21.05;;;;;;;12.13;100.00;93076.38;4993263;28;20427;-77
2022/10/10 07:54:42;;;;;;;43.10;21.73;;;;;;;12.12;100.00;93082.69;4999467;28;20554;-78
2022/10/10 07:57:08;;;;;;;64.75;20.85;;;;;;;12.01;100.00;93082.03;4983100;28;20049;-78
2022/10/10 07:59:33;;;;;;;44.97;21.33;;;;;;;12.00;100.00;93078.63;5028677;28;20148;-78
2022/10/10 08:01:59;;;;;;;43.25;20.70;;;;;;;12.00;100.00;93077.81;4982628;28;20044;-79
2022/10/10 08:04:24;;;;;;;50.20;21.05;;;;;;;12.06;100.00;93076.72;5030270;28;20083;-78
2022/10/10 08:06:50;;;;;;;46.15;21.33;;;;;;;12.14;100.00;93075.31;5011216;28;20033;-79
2022/10/10 08:09:16;;;;;;;47.03;20.52;;;;;;;12.21;100.00;93081.00;5013035;28;20046;-79
2022/10/10 08:11:41;;;;;;;47.40;20.10;;;;;;;12.19;100.00;93086.53;5010350;28;20113;-78
2022/10/10 08:14:07;;;;;;;50.85;21.52;;;;;;;12.11;100.00;93086.38;5032550;28;20041;-78
2022/10/10 08:16:32;;;;;;;45.40;20.38;;;;;;;12.00;100.00;93096.19;5009528;28;20045;-78
2022/10/10 08:18:58;;;;;;;42.60;20.77;;;;;;;11.95;100.00;93096.25;5026703;28;20060;-79
2022/10/10 08:21:24;;;;;;;44.33;20.20;;;;;;;11.91;100.00;93087.38;5020571;28;20048;-79
2022/10/10 08:23:49;;;;;;;51.85;22.70;;;;;;;11.94;100.00;93092.84;5022596;28;20088;-78
2022/10/10 08:26:18;;;;;;;45.78;20.83;;;;;;;12.00;100.00;93088.31;5005832;28;20030;-78
2022/10/10 08:28:44;;;;;;;42.60;20.80;;;;;;;12.21;100.00;93094.91;5031286;28;20041;-78
2022/10/10 08:31:16;;;;;;;51.95;21.35;;;;;;;12.16;100.00;93091.53;5034729;28;20083;-79
2022/10/10 08:33:44;;;;;;;46.92;21.08;;;;;;;12.16;100.00;93092.34;5002803;28;20091;-78
2022/10/10 08:36:22;;;;;;;46.03;19.90;;;;;;;12.13;100.00;93090.25;5041346;28;20041;-77
2022/10/10 08:38:48;;;;;;;51.20;21.42;;;;;;;12.05;100.00;93090.91;5035243;28;20035;-78
2022/10/10 08:41:40;;;;;;;55.53;21.25;;;;;;;12.05;100.00;93096.94;5029788;28;20061;-78
2022/10/10 08:44:15;;;;;;;41.42;21.00;;;;;;;12.03;100.00;93095.66;5021918;28;20045;-78
2022/10/10 08:46:41;;;;;;;50.67;20.27;;;;;;;12.03;100.00;93099.03;5025561;28;20428;-78
2022/10/10 08:49:18;;;;;;;55.05;21.17;;;;;;;11.97;100.00;93094.13;5000017;28;20066;-78
2022/10/10 08:51:51;;;;;;;53.33;21.88;;;;;;;11.96;100.00;93092.59;5011859;28;20042;-78
2022/10/10 08:54:18;;;;;;;46.78;20.60;;;;;;;12.03;100.00;93101.66;5030771;28;20033;-77
2022/10/10 08:56:44;;;;;;;55.83;21.30;;;;;;;11.98;100.00;93098.31;5030407;28;20123;-78
2022/10/10 08:59:14;;;;;;;45.45;20.58;;;;;;;12.06;100.00;93097.69;4977969;28;21067;-77
2022/10/10 09:01:40;;;;;;;46.28;21.25;;;;;;;12.01;100.00;93100.38;5012058;28;20033;-77
2022/10/10 09:04:14;;;;;;;50.65;21.10;;;;;;;11.89;100.00;93103.41;5012081;28;20040;-77
2022/10/10 09:06:39;;;;;;;55.10;21.90;;;;;;;11.85;100.00;93113.63;4996880;28;20026;-77
2022/10/10 09:09:14;;;;;;;43.38;21.92;;;;;;;11.87;100.00;93097.63;5013791;28;20392;-76
2022/10/10 09:11:45;;;;;;;53.38;20.65;;;;;;;11.88;100.00;93097.34;5035738;28;20025;-77
2022/10/10 09:14:26;;;;;;;48.93;21.10;;;;;;;11.93;100.00;93093.91;5048695;28;20495;-77
2022/10/10 09:16:59;;;;;;;47.17;20.92;;;;;;;11.98;100.00;93090.44;5031281;28;20280;-78
2022/10/10 09:20:06;;;;;;;55.33;21.98;;;;;;;11.99;100.00;93092.00;5031107;28;20053;-77
2022/10/10 09:22:40;;;;;;;49.33;19.90;;;;;;;12.06;100.00;93087.97;5001451;28;20041;-77
2022/10/10 09:25:30;;;;;;;48.53;21.00;;;;;;;12.13;100.00;93089.50;4998913;28;20510;-77
2022/10/10 09:28:19;;;;;;;42.15;19.15;;;;;;;12.32;100.00;93092.16;5029791;28;20059;-78
2022/10/10 09:30:51;;;;;;;56.85;21.95;;;;;;;12.10;100.00;93093.47;4999716;28;20037;-77
2022/10/10 09:33:31;;;;;;;50.78;21.98;;;;;;;11.98;100.00;93086.00;5031678;28;20438;-78
2022/10/10 09:35:58;;;;;;;47.95;21.65;;;;;;;12.01;100.00;93092.50;5030286;28;20103;-78
2022/10/10 09:38:40;;;;;;;56.38;21.52;;;;;;;12.03;100.00;93093.03;4997551;28;20033;-78
2022/10/10 09:41:25;;;;;;;52.70;21.85;;;;;;;12.08;100.00;93100.81;5013808;28;20538;-77
2022/10/10 09:43:56;;;;;;;54.47;22.27;;;;;;;12.15;100.00;93096.03;4979645;28;20126;-77
2022/10/10 09:46:22;;;;;;;54.78;22.30;;;;;;;12.16;100.00;93096.78;5029654;28;20333;-77
2022/10/10 09:48:47;;;;;;;55.13;22.38;;;;;;;12.14;100.00;93099.72;5031274;28;20395;-78
2022/10/10 09:51:18;;;;;;;44.53;21.42;;;;;;;12.16;100.00;93096.78;5013947;28;20128;-77
2022/10/10 09:53:45;;;;;;;47.50;23.00;;;;;;;12.13;100.00;93098.13;4997312;28;20036;-77
2022/10/10 09:56:21;;;;;;;54.78;22.20;;;;;;;12.23;100.00;93099.88;4997030;28;20128;-77
2022/10/10 09:58:52;;;;;;;55.80;24.15;;;;;;;12.17;100.00;93096.53;5022263;28;20033;-79
2022/10/10 10:01:23;;;;;;;47.20;22.85;;;;;;;12.29;100.00;93102.16;4996411;28;20422;-78
2022/10/10 10:04:14;;;;;;;55.70;23.17;;;;;;;12.30;100.00;93102.94;5025628;28;20032;-78
2022/10/10 10:06:46;;;;;;;54.33;22.50;;;;;;;12.35;100.00;93109.97;5018882;28;20471;-78
2022/10/10 10:09:18;;;;;;;47.72;22.17;;;;;;;12.35;100.00;93107.34;5036038;28;20382;-78
2022/10/10 10:11:46;;;;;;;47.97;20.23;;;;;;;12.45;100.00;93104.59;5051361;28;20442;-77
2022/10/10 10:14:35;;;;;;;48.97;20.55;;;;;;;12.46;100.00;93100.91;5021785;28;20029;-79
2022/10/10 10:17:15;;;;;;;43.58;18.75;;;;;;;12.52;100.00;93105.03;5015300;28;20136;-77
2022/10/10 10:19:43;;;;;;;50.40;19.33;;;;;;;12.62;100.00;93109.38;5026391;28;20124;-79
2022/10/10 10:22:24;;;;;;;50.15;20.08;;;;;;;12.73;100.00;93104.75;5034098;28;20041;-79
2022/10/10 10:24:49;;;;;;;53.53;21.00;;;;;;;12.79;100.00;93108.88;5012840;28;20045;-78
2022/10/10 10:27:21;;;;;;;57.33;21.20;;;;;;;12.82;100.00;93113.56;4994599;28;20235;-78
2022/10/10 10:29:54;;;;;;;49.17;20.43;;;;;;;12.80;100.00;93110.44;5029682;28;20120;-78
2022/10/10 10:33:08;;;;;;;57.58;22.13;;;;;;;12.77;100.00;93108.38;4994166;28;20117;-78
2022/10/10 10:36:14;;;;;;;48.67;21.88;;;;;;;12.75;100.00;93107.88;4950171;28;20516;-77
2022/10/10 10:38:57;;;;;;;45.95;20.92;;;;;;;12.82;100.00;93113.56;4940980;28;20050;-78
2022/10/10 10:41:30;;;;;;;41.83;19.85;;;;;;;12.84;100.00;93109.59;5016452;28;20062;-78
2022/10/10 10:44:18;;;;;;;50.78;21.10;;;;;;;12.93;100.00;93109.72;5026917;28;20038;-78
2022/10/10 10:47:21;;;;;;;50.63;23.05;;;;;;;12.96;100.00;93113.63;5024326;28;20029;-78
2022/10/10 10:49:56;;;;;;;49.38;20.27;;;;;;;13.00;100.00;93117.25;5027078;28;20038;-77
2022/10/10 10:52:31;;;;;;;49.85;22.58;;;;;;;13.08;100.00;93101.63;5012996;28;20506;-78
2022/10/10 10:55:15;;;;;;;52.80;20.52;;;;;;;13.20;100.00;93108.28;5021320;28;20092;-78
2022/10/10 10:57:53;;;;;;;43.95;20.70;;;;;;;13.32;100.00;93096.28;5023360;28;20067;-78
2022/10/10 11:00:19;;;;;;;51.83;20.17;;;;;;;13.38;100.00;93091.72;5029497;28;20075;-78
2022/10/10 11:03:18;;;;;;;47.33;19.67;;;;;;;13.43;100.00;93093.50;5030869;28;20326;-78
2022/10/10 11:05:52;;;;;;;52.80;19.63;;;;;;;13.46;100.00;93091.03;5029568;28;20562;-78
2022/10/10 11:08:40;;;;;;;48.05;19.48;;;;;;;13.51;100.00;93098.88;5013005;28;20029;-78
2022/10/10 11:11:24;;;;;;;48.45;19.95;;;;;;;13.53;100.00;93094.09;5013442;28;20117;-78
2022/10/10 11:14:35;;;;;;;46.90;19.38;;;;;;;13.54;100.00;93082.50;5012931;28;20033;-78
2022/10/10 11:17:11;;;;;;;45.97;19.30;;;;;;;13.58;100.00;93092.44;5019779;28;20049;-78
2022/10/10 11:19:44;;;;;;;52.72;20.05;;;;;;;13.60;100.00;93088.47;5008874;28;20038;-79
2022/10/10 11:22:33;;;;;;;43.58;19.95;;;;;;;13.67;100.00;93083.59;5011975;28;20368;-78
2022/10/10 11:25:07;;;;;;;48.83;19.33;;;;;;;13.77;100.00;93090.53;5019459;28;20073;-79